Time;durP1;ratioP1;P1;durP2;ratioP2;P2;SDS_P1;SDS_P2;PMS_P1;PMS_P2;Temp;Humidity;BMP_temperature;BMP_pressure;BME280_temperature;BME280_humidity;BME280_pressure;Samples;Min_cycle;Max_cycle;Signal;HPM_P1;HPM_P2
2022/08/02 00:00:20;;;;;;;3.22;2.92;;;;;;;;;;1675465;29;22098;-64
2022/08/02 00:01:11;;;;;;;3.55;2.83;;;;;;;;;;1676624;29;22408;-64
2022/08/02 00:02:04;;;;;;;2.83;2.47;;;;;;;;;;1674890;29;22423;-64
2022/08/02 00:02:55;;;;;;;3.35;2.75;;;;;;;;;;1675793;29;21670;-64
2022/08/02 00:03:47;;;;;;;3.75;2.85;;;;;;;;;;1676477;29;21706;-64
2022/08/02 00:04:38;;;;;;;3.67;2.63;;;;;;;;;;1675269;29;22669;-64
2022/08/02 00:05:31;;;;;;;3.20;2.80;;;;;;;;;;1673947;29;21615;-64
2022/08/02 00:06:22;;;;;;;2.75;2.55;;;;;;;;;;1679140;29;21691;-64
2022/08/02 00:07:15;;;;;;;4.20;2.53;;;;;;;;;;1674976;29;21956;-64
2022/08/02 00:08:06;;;;;;;4.32;2.90;;;;;;;;;;1676845;29;21665;-64
2022/08/02 00:08:58;;;;;;;3.08;2.50;;;;;;;;;;1677564;29;21721;-64
2022/08/02 00:09:49;;;;;;;3.50;2.75;;;;;;;;;;1678863;29;21602;-64
2022/08/02 00:10:42;;;;;;;3.42;3.15;;;;;;;;;;1676816;29;22825;-64
2022/08/02 00:11:33;;;;;;;2.60;2.40;;;;;;;;;;1677769;29;21583;-64
2022/08/02 00:12:26;;;;;;;2.83;2.60;;;;;;;;;;1676768;29;21628;-64
2022/08/02 00:13:18;;;;;;;4.38;2.55;;;;;;;;;;1676809;29;21769;-64
2022/08/02 00:14:11;;;;;;;3.05;2.85;;;;;;;;;;1677802;29;21776;-64
2022/08/02 00:15:03;;;;;;;6.10;2.58;;;;;;;;;;1676469;29;21877;-64
2022/08/02 00:15:55;;;;;;;5.78;2.58;;;;;;;;;;1674509;29;21727;-64
2022/08/02 00:16:46;;;;;;;2.60;2.40;;;;;;;;;;1677228;29;22490;-64
2022/08/02 00:17:38;;;;;;;3.05;2.35;;;;;;;;;;1675651;29;21614;-63
2022/08/02 00:18:30;;;;;;;2.75;2.33;;;;;;;;;;1675274;29;21938;-63
2022/08/02 00:19:22;;;;;;;3.00;2.70;;;;;;;;;;1674662;29;22674;-64
2022/08/02 00:20:13;;;;;;;2.92;2.72;;;;;;;;;;1676552;29;21737;-64
2022/08/02 00:21:06;;;;;;;7.93;2.42;;;;;;;;;;1676020;29;21843;-64
2022/08/02 00:21:57;;;;;;;3.67;2.92;;;;;;;;;;1673788;29;21592;-64
2022/08/02 00:22:49;;;;;;;3.03;2.53;;;;;;;;;;1680107;29;21753;-64
2022/08/02 00:23:41;;;;;;;2.88;2.67;;;;;;;;;;1677391;29;21607;-64
2022/08/02 00:24:33;;;;;;;2.80;2.60;;;;;;;;;;1677682;29;22467;-64
2022/08/02 00:25:24;;;;;;;3.28;2.58;;;;;;;;;;1678033;29;21802;-64
2022/08/02 00:26:16;;;;;;;3.00;2.70;;;;;;;;;;1675787;29;21835;-64
2022/08/02 00:27:08;;;;;;;5.28;2.63;;;;;;;;;;1672154;29;22423;-64
2022/08/02 00:28:00;;;;;;;4.43;2.20;;;;;;;;;;1672907;29;21677;-64
2022/08/02 00:28:52;;;;;;;2.72;2.53;;;;;;;;;;1668945;29;21959;-64
2022/08/02 00:29:45;;;;;;;2.70;2.47;;;;;;;;;;1669340;29;21669;-64
2022/08/02 00:30:36;;;;;;;4.03;2.30;;;;;;;;;;1675153;28;21645;-64
2022/08/02 00:31:28;;;;;;;7.15;2.70;;;;;;;;;;1672558;29;22004;-64
2022/08/02 00:32:20;;;;;;;3.58;2.58;;;;;;;;;;1675302;29;21917;-64
2022/08/02 00:33:12;;;;;;;5.05;2.75;;;;;;;;;;1676645;29;22487;-63
2022/08/02 00:34:03;;;;;;;3.28;2.63;;;;;;;;;;1674171;29;21643;-64
2022/08/02 00:34:55;;;;;;;2.25;2.15;;;;;;;;;;1675842;29;21825;-64
2022/08/02 00:35:47;;;;;;;3.38;2.83;;;;;;;;;;1678347;29;22108;-64
2022/08/02 00:36:40;;;;;;;2.22;2.03;;;;;;;;;;1674132;29;22627;-64
2022/08/02 00:37:31;;;;;;;2.55;2.38;;;;;;;;;;1675590;29;21866;-64
2022/08/02 00:38:23;;;;;;;2.58;2.38;;;;;;;;;;1676454;29;21776;-64
2022/08/02 00:39:14;;;;;;;5.75;2.55;;;;;;;;;;1677388;29;22045;-64
2022/08/02 00:40:09;;;;;;;3.13;2.50;;;;;;;;;;1678456;29;22084;-64
2022/08/02 00:41:00;;;;;;;2.90;2.67;;;;;;;;;;1674155;29;22596;-64
2022/08/02 00:41:53;;;;;;;2.50;2.30;;;;;;;;;;1675227;29;21652;-64
2022/08/02 00:42:44;;;;;;;6.50;2.60;;;;;;;;;;1678111;29;21648;-64
2022/08/02 00:43:37;;;;;;;3.63;2.80;;;;;;;;;;1674673;29;21599;-64
2022/08/02 00:44:29;;;;;;;3.45;2.38;;;;;;;;;;1675767;29;21662;-64
2022/08/02 00:45:21;;;;;;;2.65;2.40;;;;;;;;;;1674632;29;22622;-64
2022/08/02 00:46:14;;;;;;;3.10;2.58;;;;;;;;;;1677095;29;22383;-64
2022/08/02 00:47:06;;;;;;;2.55;2.35;;;;;;;;;;1678619;29;21638;-64
2022/08/02 00:47:57;;;;;;;2.65;2.30;;;;;;;;;;1679315;29;21560;-64
2022/08/02 00:48:50;;;;;;;2.97;2.70;;;;;;;;;;1675213;29;22337;-64
2022/08/02 00:49:41;;;;;;;2.65;2.45;;;;;;;;;;1675373;29;22588;-64
2022/08/02 00:50:34;;;;;;;3.08;2.55;;;;;;;;;;1677459;29;21776;-64
2022/08/02 00:51:25;;;;;;;2.80;2.60;;;;;;;;;;1672856;29;21582;-64
2022/08/02 00:52:18;;;;;;;2.85;2.60;;;;;;;;;;1674211;29;21604;-64
2022/08/02 00:53:09;;;;;;;2.83;2.60;;;;;;;;;;1674374;29;21690;-64
2022/08/02 00:54:01;;;;;;;2.95;2.50;;;;;;;;;;1678655;29;21898;-65
2022/08/02 00:54:53;;;;;;;3.13;2.65;;;;;;;;;;1673606;29;21945;-65
2022/08/02 00:55:45;;;;;;;2.42;2.22;;;;;;;;;;1674514;29;22035;-65
2022/08/02 00:56:36;;;;;;;2.70;2.50;;;;;;;;;;1676629;29;21713;-65
2022/08/02 00:57:28;;;;;;;2.80;2.60;;;;;;;;;;1676699;29;22114;-63
2022/08/02 00:58:19;;;;;;;2.30;2.17;;;;;;;;;;1675415;29;21960;-63
2022/08/02 00:59:12;;;;;;;2.58;2.35;;;;;;;;;;1674955;29;22560;-62
2022/08/02 01:00:07;;;;;;;2.70;2.50;;;;;;;;;;1675148;29;21607;-64
2022/08/02 01:01:00;;;;;;;2.70;2.50;;;;;;;;;;1674449;29;21673;-64
2022/08/02 01:01:52;;;;;;;8.63;2.35;;;;;;;;;;1673243;29;22239;-64
2022/08/02 01:02:44;;;;;;;2.38;2.20;;;;;;;;;;1675912;29;21754;-64
2022/08/02 01:03:35;;;;;;;6.43;2.60;;;;;;;;;;1676331;29;22454;-64
2022/08/02 01:04:28;;;;;;;2.25;2.05;;;;;;;;;;1669138;29;22699;-64
2022/08/02 01:05:19;;;;;;;2.63;2.42;;;;;;;;;;1668495;29;21999;-64
2022/08/02 01:06:11;;;;;;;3.53;2.50;;;;;;;;;;1674456;29;21627;-64
2022/08/02 01:07:04;;;;;;;2.53;2.33;;;;;;;;;;1676950;29;21599;-64
2022/08/02 01:07:56;;;;;;;2.42;2.22;;;;;;;;;;1673848;29;21721;-64
2022/08/02 01:08:47;;;;;;;2.22;2.03;;;;;;;;;;1676724;29;21805;-64
2022/08/02 01:09:40;;;;;;;2.55;2.00;;;;;;;;;;1675969;29;21635;-64
2022/08/02 01:10:31;;;;;;;3.03;2.08;;;;;;;;;;1675980;29;22011;-64
2022/08/02 01:11:24;;;;;;;2.70;2.50;;;;;;;;;;1673354;29;21757;-64
2022/08/02 01:12:15;;;;;;;2.53;2.33;;;;;;;;;;1672840;29;21677;-64
2022/08/02 01:13:07;;;;;;;5.32;2.60;;;;;;;;;;1677239;29;21654;-64
2022/08/02 01:14:03;;;;;;;2.55;2.03;;;;;;;;;;1672965;29;22389;-64
2022/08/02 01:14:58;;;;;;;2.58;2.38;;;;;;;;;;1675147;29;21710;-64
2022/08/02 01:16:02;;;;;;;2.42;2.25;;;;;;;;;;1673612;29;21683;-64
2022/08/02 01:17:03;;;;;;;2.80;2.60;;;;;;;;;;1667549;29;21830;-64
2022/08/02 01:18:02;;;;;;;3.42;2.53;;;;;;;;;;1669848;29;22609;-64
2022/08/02 01:19:02;;;;;;;4.35;2.42;;;;;;;;;;1667722;29;22540;-64
2022/08/02 01:20:04;;;;;;;2.97;2.72;;;;;;;;;;1667270;29;21593;-65
2022/08/02 01:21:33;;;;;;;2.50;2.30;;;;;;;;;;1670791;29;21647;-65
2022/08/02 01:23:01;;;;;;;2.40;2.30;;;;;;;;;;1663467;29;21638;-65
2022/08/02 01:24:19;;;;;;;2.45;2.28;;;;;;;;;;1672493;29;21625;-65
2022/08/02 01:25:27;;;;;;;2.53;2.33;;;;;;;;;;1669237;29;21647;-65
2022/08/02 01:26:38;;;;;;;2.08;1.88;;;;;;;;;;1670960;29;22439;-64
2022/08/02 01:27:42;;;;;;;2.40;2.20;;;;;;;;;;1666199;29;21763;-64
2022/08/02 01:28:41;;;;;;;2.63;2.42;;;;;;;;;;1670538;29;22626;-64
2022/08/02 01:29:36;;;;;;;2.40;2.30;;;;;;;;;;1667917;29;22158;-64
2022/08/02 01:30:32;;;;;;;2.95;2.75;;;;;;;;;;1668876;29;22238;-64
2022/08/02 01:31:30;;;;;;;3.40;2.58;;;;;;;;;;1665985;29;21596;-64
2022/08/02 01:32:29;;;;;;;2.50;2.40;;;;;;;;;;1665858;29;21861;-64
2022/08/02 01:33:22;;;;;;;2.30;2.20;;;;;;;;;;1668097;29;22692;-64
2022/08/02 01:34:21;;;;;;;2.85;2.65;;;;;;;;;;1669699;29;22072;-64
2022/08/02 01:35:17;;;;;;;8.30;2.70;;;;;;;;;;1665928;29;22088;-64
2022/08/02 01:36:13;;;;;;;2.40;2.30;;;;;;;;;;1668754;29;21794;-64
2022/08/02 01:37:10;;;;;;;2.42;2.22;;;;;;;;;;1671113;29;21658;-64
2022/08/02 01:38:11;;;;;;;2.33;2.17;;;;;;;;;;1666967;29;21605;-64
2022/08/02 01:39:04;;;;;;;3.47;2.42;;;;;;;;;;1665574;29;22011;-64
2022/08/02 01:40:07;;;;;;;2.58;2.10;;;;;;;;;;1669120;29;21755;-64
2022/08/02 01:41:01;;;;;;;2.13;2.03;;;;;;;;;;1665731;29;22458;-64
2022/08/02 01:41:54;;;;;;;2.70;2.50;;;;;;;;;;1669414;29;22483;-64
2022/08/02 01:42:50;;;;;;;2.38;2.22;;;;;;;;;;1669148;29;21824;-64
2022/08/02 01:43:45;;;;;;;2.20;2.03;;;;;;;;;;1664908;29;21606;-64
2022/08/02 01:44:40;;;;;;;2.50;2.30;;;;;;;;;;1671090;29;21665;-63
2022/08/02 01:45:35;;;;;;;3.13;2.30;;;;;;;;;;1668496;29;21739;-63
2022/08/02 01:46:28;;;;;;;2.42;2.20;;;;;;;;;;1667484;29;21580;-64
2022/08/02 01:47:28;;;;;;;2.85;2.65;;;;;;;;;;1668486;29;21917;-64
2022/08/02 01:48:20;;;;;;;2.20;2.00;;;;;;;;;;1669810;29;21582;-64
2022/08/02 01:49:19;;;;;;;2.20;2.00;;;;;;;;;;1667178;29;22382;-64
2022/08/02 01:50:13;;;;;;;2.20;2.10;;;;;;;;;;1669562;29;21608;-64
2022/08/02 01:51:07;;;;;;;6.03;2.38;;;;;;;;;;1667207;29;21844;-64
2022/08/02 01:52:20;;;;;;;2.28;2.08;;;;;;;;;;1667462;29;21695;-64
2022/08/02 01:53:13;;;;;;;1.98;1.80;;;;;;;;;;1663283;29;21585;-64
2022/08/02 01:54:05;;;;;;;1.90;1.80;;;;;;;;;;1669176;29;22128;-64
2022/08/02 01:55:05;;;;;;;1.90;1.80;;;;;;;;;;1667873;29;21674;-65
2022/08/02 01:55:59;;;;;;;2.30;2.10;;;;;;;;;;1668336;29;21644;-65
2022/08/02 01:56:53;;;;;;;1.83;1.73;;;;;;;;;;1669893;29;21631;-65
2022/08/02 01:57:48;;;;;;;2.38;2.20;;;;;;;;;;1667853;29;21798;-64
2022/08/02 01:58:43;;;;;;;2.75;2.55;;;;;;;;;;1670374;29;21572;-64
2022/08/02 01:59:36;;;;;;;2.47;2.10;;;;;;;;;;1669029;29;21720;-64
2022/08/02 02:00:37;;;;;;;2.28;2.15;;;;;;;;;;1668599;29;21655;-64
2022/08/02 02:01:32;;;;;;;3.95;2.13;;;;;;;;;;1666619;29;21654;-64
2022/08/02 02:02:24;;;;;;;2.40;2.20;;;;;;;;;;1667862;29;21602;-64
2022/08/02 02:03:20;;;;;;;2.42;2.08;;;;;;;;;;1672356;29;21936;-64
2022/08/02 02:04:14;;;;;;;2.58;2.33;;;;;;;;;;1671585;29;21668;-64
2022/08/02 02:05:07;;;;;;;2.40;2.30;;;;;;;;;;1665943;29;21701;-64
2022/08/02 02:06:01;;;;;;;1.98;1.88;;;;;;;;;;1669636;29;22275;-64
2022/08/02 02:06:55;;;;;;;2.50;2.30;;;;;;;;;;1669366;29;21988;-65
2022/08/02 02:07:50;;;;;;;2.03;1.92;;;;;;;;;;1667076;29;22551;-64
2022/08/02 02:08:44;;;;;;;2.42;2.03;;;;;;;;;;1671032;29;22139;-64
2022/08/02 02:09:38;;;;;;;2.33;2.13;;;;;;;;;;1668818;29;21974;-64
2022/08/02 02:10:33;;;;;;;2.60;2.40;;;;;;;;;;1669075;29;21647;-65
2022/08/02 02:11:25;;;;;;;2.10;2.00;;;;;;;;;;1666274;29;21710;-64
2022/08/02 02:12:19;;;;;;;2.45;2.25;;;;;;;;;;1671181;29;22544;-64
2022/08/02 02:13:14;;;;;;;2.85;1.98;;;;;;;;;;1667311;29;22762;-64
2022/08/02 02:14:10;;;;;;;4.40;2.30;;;;;;;;;;1668439;29;22081;-64
2022/08/02 02:15:02;;;;;;;1.85;1.75;;;;;;;;;;1665759;29;21579;-65
2022/08/02 02:15:56;;;;;;;2.10;2.00;;;;;;;;;;1668914;29;21622;-64
2022/08/02 02:16:48;;;;;;;2.45;2.03;;;;;;;;;;1668652;29;21665;-65
2022/08/02 02:17:44;;;;;;;2.08;1.98;;;;;;;;;;1676205;29;21741;-64
2022/08/02 02:18:42;;;;;;;2.10;1.92;;;;;;;;;;1675868;29;21646;-64
2022/08/02 02:19:36;;;;;;;2.45;2.25;;;;;;;;;;1678281;29;22013;-65
2022/08/02 02:20:28;;;;;;;2.08;1.98;;;;;;;;;;1675472;29;22409;-64
2022/08/02 02:21:21;;;;;;;2.40;2.20;;;;;;;;;;1671316;29;21623;-64
2022/08/02 02:22:12;;;;;;;2.78;2.15;;;;;;;;;;1677271;29;21639;-64
2022/08/02 02:23:04;;;;;;;2.17;2.08;;;;;;;;;;1673423;29;21621;-65
2022/08/02 02:23:55;;;;;;;1.95;1.85;;;;;;;;;;1678359;29;22341;-64
2022/08/02 02:24:48;;;;;;;3.25;2.60;;;;;;;;;;1676775;29;21669;-65
2022/08/02 02:25:40;;;;;;;4.97;2.08;;;;;;;;;;1674464;29;22174;-64
2022/08/02 02:26:35;;;;;;;1.98;1.85;;;;;;;;;;1670613;29;22357;-64
2022/08/02 02:27:27;;;;;;;2.35;2.15;;;;;;;;;;1672608;29;21645;-65
2022/08/02 02:28:27;;;;;;;1.95;1.85;;;;;;;;;;1675052;29;21723;-65
2022/08/02 02:29:24;;;;;;;2.63;1.83;;;;;;;;;;1674167;29;22019;-63
2022/08/02 02:30:17;;;;;;;2.22;2.05;;;;;;;;;;1676046;29;21721;-63
2022/08/02 02:31:12;;;;;;;1.92;1.83;;;;;;;;;;1673801;29;21614;-63
2022/08/02 02:32:06;;;;;;;1.95;1.85;;;;;;;;;;1676480;29;21593;-63
2022/08/02 02:33:01;;;;;;;2.42;2.00;;;;;;;;;;1674674;29;21632;-63
2022/08/02 02:34:00;;;;;;;1.83;1.73;;;;;;;;;;1674471;29;21666;-63
2022/08/02 02:34:53;;;;;;;2.20;2.00;;;;;;;;;;1676700;29;21718;-64
2022/08/02 02:35:48;;;;;;;1.95;1.85;;;;;;;;;;1674815;29;22009;-64
2022/08/02 02:36:45;;;;;;;2.10;1.90;;;;;;;;;;1673237;29;22341;-65
2022/08/02 02:37:39;;;;;;;1.83;1.73;;;;;;;;;;1670800;29;21746;-64
2022/08/02 02:38:31;;;;;;;1.95;1.85;;;;;;;;;;1674658;29;21650;-64
2022/08/02 02:39:25;;;;;;;2.25;2.15;;;;;;;;;;1673226;29;21761;-64
2022/08/02 02:40:18;;;;;;;4.90;1.80;;;;;;;;;;1669131;29;21779;-64
2022/08/02 02:41:10;;;;;;;2.10;2.00;;;;;;;;;;1673052;29;21637;-64
2022/08/02 02:42:07;;;;;;;2.00;1.90;;;;;;;;;;1673751;29;21887;-64
2022/08/02 02:43:01;;;;;;;1.83;1.73;;;;;;;;;;1670783;29;21838;-64
2022/08/02 02:43:54;;;;;;;2.90;1.98;;;;;;;;;;1672806;29;21891;-64
2022/08/02 02:44:49;;;;;;;2.50;2.30;;;;;;;;;;1675707;29;21877;-64
2022/08/02 02:45:41;;;;;;;1.80;1.70;;;;;;;;;;1675577;29;21773;-64
2022/08/02 02:46:35;;;;;;;2.03;1.67;;;;;;;;;;1673474;29;21983;-65
2022/08/02 02:47:30;;;;;;;2.05;1.95;;;;;;;;;;1675133;29;22016;-64
2022/08/02 02:48:22;;;;;;;1.95;1.85;;;;;;;;;;1677346;29;22004;-65
2022/08/02 02:49:15;;;;;;;1.90;1.80;;;;;;;;;;1676085;29;21873;-64
2022/08/02 02:50:08;;;;;;;2.42;2.08;;;;;;;;;;1677975;29;21637;-64
2022/08/02 02:51:03;;;;;;;1.70;1.60;;;;;;;;;;1677586;29;22518;-64
2022/08/02 02:51:56;;;;;;;2.20;2.08;;;;;;;;;;1672648;29;21698;-64
2022/08/02 02:52:49;;;;;;;2.00;1.88;;;;;;;;;;1673887;29;21643;-64
2022/08/02 02:53:41;;;;;;;1.85;1.75;;;;;;;;;;1677572;29;21557;-64
2022/08/02 02:54:35;;;;;;;1.88;1.77;;;;;;;;;;1674890;29;21605;-64
2022/08/02 02:55:28;;;;;;;1.95;1.85;;;;;;;;;;1675421;29;21693;-64
2022/08/02 02:56:21;;;;;;;1.92;1.83;;;;;;;;;;1675654;29;21659;-64
2022/08/02 02:57:13;;;;;;;3.03;1.80;;;;;;;;;;1674789;29;22514;-65
2022/08/02 02:58:07;;;;;;;1.50;1.40;;;;;;;;;;1674804;29;22292;-64
2022/08/02 02:58:59;;;;;;;2.03;1.83;;;;;;;;;;1677236;29;22552;-64
2022/08/02 02:59:53;;;;;;;1.67;1.58;;;;;;;;;;1671233;29;21823;-65
2022/08/02 03:01:55;;;;;;;1.67;1.58;;;;;;;;;;1675987;29;21554;-64
2022/08/02 03:02:47;;;;;;;1.98;1.88;;;;;;;;;;1674739;29;21638;-64
2022/08/02 03:03:39;;;;;;;1.83;1.73;;;;;;;;;;1674567;29;22039;-64
2022/08/02 03:04:33;;;;;;;2.10;1.90;;;;;;;;;;1675671;29;21882;-64
2022/08/02 03:05:24;;;;;;;2.03;1.92;;;;;;;;;;1673856;29;22901;-64
2022/08/02 03:06:16;;;;;;;2.20;2.10;;;;;;;;;;1674698;29;22348;-65
2022/08/02 03:07:09;;;;;;;1.73;1.63;;;;;;;;;;1675652;29;21839;-64
2022/08/02 03:08:01;;;;;;;2.22;1.70;;;;;;;;;;1674491;29;21895;-65
2022/08/02 03:08:52;;;;;;;1.77;1.67;;;;;;;;;;1679578;29;21664;-64
2022/08/02 03:09:45;;;;;;;1.98;1.88;;;;;;;;;;1678868;29;21602;-64
2022/08/02 03:10:36;;;;;;;1.98;1.88;;;;;;;;;;1675519;29;21885;-64
2022/08/02 03:11:28;;;;;;;3.92;1.88;;;;;;;;;;1669640;29;21697;-66
2022/08/02 03:12:21;;;;;;;1.85;1.70;;;;;;;;;;1674659;29;21626;-64
2022/08/02 03:13:13;;;;;;;1.67;1.58;;;;;;;;;;1673432;29;22434;-64
2022/08/02 03:14:11;;;;;;;1.70;1.60;;;;;;;;;;1673583;29;21590;-64
2022/08/02 03:15:06;;;;;;;1.90;1.80;;;;;;;;;;1671729;29;21662;-64
2022/08/02 03:16:01;;;;;;;4.82;2.22;;;;;;;;;;1674609;29;21645;-64
2022/08/02 03:16:53;;;;;;;2.03;1.60;;;;;;;;;;1677520;29;21930;-64
2022/08/02 03:17:46;;;;;;;1.83;1.73;;;;;;;;;;1677305;29;21614;-64
2022/08/02 03:18:41;;;;;;;2.25;2.05;;;;;;;;;;1677629;29;22000;-64
2022/08/02 03:19:33;;;;;;;1.65;1.55;;;;;;;;;;1675689;29;21810;-64
2022/08/02 03:20:24;;;;;;;1.98;1.88;;;;;;;;;;1676153;29;21621;-64
2022/08/02 03:21:17;;;;;;;2.83;1.98;;;;;;;;;;1674182;29;22134;-64
2022/08/02 03:22:08;;;;;;;2.35;1.85;;;;;;;;;;1676485;29;21652;-64
2022/08/02 03:23:01;;;;;;;1.70;1.60;;;;;;;;;;1669366;29;21629;-64
2022/08/02 03:23:52;;;;;;;1.70;1.60;;;;;;;;;;1673874;29;21588;-64
2022/08/02 03:24:44;;;;;;;1.55;1.45;;;;;;;;;;1679918;29;21707;-65
2022/08/02 03:25:35;;;;;;;1.73;1.63;;;;;;;;;;1675419;29;22041;-64
2022/08/02 03:26:27;;;;;;;1.90;1.70;;;;;;;;;;1675744;29;22451;-64
2022/08/02 03:27:19;;;;;;;1.65;1.55;;;;;;;;;;1677064;29;21586;-64
2022/08/02 03:28:11;;;;;;;1.85;1.75;;;;;;;;;;1677627;29;22049;-64
2022/08/02 03:29:03;;;;;;;2.42;1.90;;;;;;;;;;1675500;29;21781;-64
2022/08/02 03:29:55;;;;;;;2.28;1.60;;;;;;;;;;1674741;29;21689;-65
2022/08/02 03:30:48;;;;;;;1.50;1.40;;;;;;;;;;1677424;29;21651;-64
2022/08/02 03:31:41;;;;;;;2.08;1.98;;;;;;;;;;1675706;29;22146;-64
2022/08/02 03:32:33;;;;;;;1.77;1.67;;;;;;;;;;1673949;29;22095;-64
2022/08/02 03:33:26;;;;;;;1.65;1.55;;;;;;;;;;1675278;29;21846;-64
2022/08/02 03:34:18;;;;;;;1.75;1.65;;;;;;;;;;1675461;29;22000;-64
2022/08/02 03:35:14;;;;;;;1.80;1.70;;;;;;;;;;1675612;29;21779;-63
2022/08/02 03:36:10;;;;;;;2.67;1.60;;;;;;;;;;1677131;29;22483;-63
2022/08/02 03:37:03;;;;;;;1.88;1.77;;;;;;;;;;1676729;29;21837;-63
2022/08/02 03:37:56;;;;;;;2.03;1.80;;;;;;;;;;1677202;29;22243;-63
2022/08/02 03:38:51;;;;;;;1.60;1.50;;;;;;;;;;1676784;29;21738;-64
2022/08/02 03:39:43;;;;;;;1.60;1.50;;;;;;;;;;1678906;29;21842;-64
2022/08/02 03:40:36;;;;;;;1.95;1.85;;;;;;;;;;1674924;29;21672;-63
2022/08/02 03:41:29;;;;;;;1.67;1.50;;;;;;;;;;1673754;29;22330;-64
2022/08/02 03:42:22;;;;;;;1.67;1.58;;;;;;;;;;1669422;29;21608;-64
2022/08/02 03:43:15;;;;;;;1.58;1.48;;;;;;;;;;1668578;29;21655;-64
2022/08/02 03:44:09;;;;;;;1.60;1.50;;;;;;;;;;1674530;29;22041;-64
2022/08/02 03:45:02;;;;;;;1.38;1.27;;;;;;;;;;1669293;29;21835;-64
2022/08/02 03:45:58;;;;;;;1.80;1.70;;;;;;;;;;1676307;29;21651;-64
2022/08/02 03:46:51;;;;;;;1.52;1.42;;;;;;;;;;1673835;29;21627;-64
2022/08/02 03:47:44;;;;;;;1.85;1.75;;;;;;;;;;1676945;29;21587;-64
2022/08/02 03:48:37;;;;;;;2.63;1.60;;;;;;;;;;1675541;29;21624;-64
2022/08/02 03:49:30;;;;;;;2.75;1.52;;;;;;;;;;1675838;29;21697;-64
2022/08/02 03:50:22;;;;;;;1.27;1.17;;;;;;;;;;1672061;29;22147;-64
2022/08/02 03:51:16;;;;;;;1.60;1.50;;;;;;;;;;1674061;29;22446;-63
2022/08/02 03:52:07;;;;;;;1.30;1.30;;;;;;;;;;1674686;29;22153;-63
2022/08/02 03:53:00;;;;;;;1.58;1.48;;;;;;;;;;1675406;29;21888;-63
2022/08/02 03:53:51;;;;;;;6.03;1.70;;;;;;;;;;1674743;29;22493;-63
2022/08/02 03:54:43;;;;;;;1.63;1.52;;;;;;;;;;1677228;29;21674;-64
2022/08/02 03:55:36;;;;;;;1.80;1.30;;;;;;;;;;1676487;29;21668;-64
2022/08/02 03:56:28;;;;;;;1.70;1.60;;;;;;;;;;1675218;29;22672;-65
2022/08/02 03:57:20;;;;;;;1.40;1.30;;;;;;;;;;1676474;29;22513;-63
2022/08/02 03:58:18;;;;;;;1.35;1.30;;;;;;;;;;1676976;29;22514;-63
2022/08/02 03:59:11;;;;;;;1.20;1.20;;;;;;;;;;1674835;29;22688;-64
2022/08/02 04:00:05;;;;;;;1.60;1.50;;;;;;;;;;1678364;29;22437;-65
2022/08/02 04:00:58;;;;;;;3.95;1.60;;;;;;;;;;1676656;29;22578;-64
2022/08/02 04:01:50;;;;;;;1.20;1.20;;;;;;;;;;1673050;29;21676;-64
2022/08/02 04:02:42;;;;;;;3.03;2.10;;;;;;;;;;1675636;29;22258;-64
2022/08/02 04:03:34;;;;;;;1.13;1.13;;;;;;;;;;1676471;29;22238;-64
2022/08/02 04:04:25;;;;;;;1.60;1.50;;;;;;;;;;1672855;29;21661;-64
2022/08/02 04:05:18;;;;;;;3.60;1.23;;;;;;;;;;1675698;29;21942;-64
2022/08/02 04:06:09;;;;;;;6.72;1.38;;;;;;;;;;1675503;29;22167;-64
2022/08/02 04:07:02;;;;;;;1.48;1.38;;;;;;;;;;1673364;29;22299;-64
2022/08/02 04:07:53;;;;;;;1.40;1.30;;;;;;;;;;1670418;29;21911;-64
2022/08/02 04:08:45;;;;;;;1.58;1.48;;;;;;;;;;1672192;29;21717;-64
2022/08/02 04:09:37;;;;;;;1.58;1.48;;;;;;;;;;1675446;29;21721;-64
2022/08/02 04:10:29;;;;;;;1.30;1.30;;;;;;;;;;1668142;29;21610;-64
2022/08/02 04:11:32;;;;;;;1.65;1.55;;;;;;;;;;1666731;29;21832;-64
2022/08/02 04:12:23;;;;;;;1.80;1.70;;;;;;;;;;1669190;29;21794;-64
2022/08/02 04:13:16;;;;;;;1.67;1.58;;;;;;;;;;1674139;29;21605;-64
2022/08/02 04:14:09;;;;;;;1.35;1.25;;;;;;;;;;1676869;29;21804;-63
2022/08/02 04:15:03;;;;;;;1.40;1.30;;;;;;;;;;1677128;29;21591;-64
2022/08/02 04:16:03;;;;;;;1.23;1.23;;;;;;;;;;1673262;29;21709;-64
2022/08/02 04:17:00;;;;;;;1.35;1.20;;;;;;;;;;1675686;29;22072;-64
2022/08/02 04:17:55;;;;;;;1.15;1.10;;;;;;;;;;1676726;29;21628;-64
2022/08/02 04:18:54;;;;;;;1.50;1.40;;;;;;;;;;1674816;29;21601;-64
2022/08/02 04:19:51;;;;;;;2.55;1.73;;;;;;;;;;1674950;29;21703;-63
2022/08/02 04:20:44;;;;;;;1.52;1.42;;;;;;;;;;1676100;29;21688;-64
2022/08/02 04:21:39;;;;;;;1.27;1.17;;;;;;;;;;1673449;29;21705;-64
2022/08/02 04:22:37;;;;;;;1.48;1.38;;;;;;;;;;1676304;29;22003;-63
2022/08/02 04:23:30;;;;;;;2.65;1.33;;;;;;;;;;1676697;29;21659;-64
2022/08/02 04:24:30;;;;;;;1.38;1.27;;;;;;;;;;1673938;29;21918;-64
2022/08/02 04:25:23;;;;;;;1.88;1.77;;;;;;;;;;1674991;29;21787;-64
2022/08/02 04:26:16;;;;;;;2.03;1.35;;;;;;;;;;1675153;29;22375;-64
2022/08/02 04:27:08;;;;;;;1.05;1.00;;;;;;;;;;1673984;29;21643;-64
2022/08/02 04:28:02;;;;;;;1.50;1.40;;;;;;;;;;1675443;29;22684;-64
2022/08/02 04:28:54;;;;;;;1.40;1.30;;;;;;;;;;1677347;29;21670;-64
2022/08/02 04:29:46;;;;;;;5.45;1.67;;;;;;;;;;1674960;29;22073;-64
2022/08/02 04:30:39;;;;;;;1.73;1.25;;;;;;;;;;1676180;29;21632;-64
2022/08/02 04:31:32;;;;;;;1.38;1.27;;;;;;;;;;1672701;29;21628;-64
2022/08/02 04:32:24;;;;;;;1.55;1.45;;;;;;;;;;1672381;29;21726;-64
2022/08/02 04:33:17;;;;;;;1.95;1.45;;;;;;;;;;1676218;29;21850;-64
2022/08/02 04:34:08;;;;;;;1.38;1.13;;;;;;;;;;1676806;29;22035;-64
2022/08/02 04:35:01;;;;;;;1.38;1.33;;;;;;;;;;1673095;29;21652;-64
2022/08/02 04:35:52;;;;;;;2.70;1.55;;;;;;;;;;1672186;29;21611;-64
2022/08/02 04:36:45;;;;;;;1.35;1.25;;;;;;;;;;1677446;29;22355;-64
2022/08/02 04:37:37;;;;;;;1.25;1.13;;;;;;;;;;1674677;29;22447;-64
2022/08/02 04:38:29;;;;;;;1.40;1.30;;;;;;;;;;1676602;29;21689;-63
2022/08/02 04:39:21;;;;;;;1.20;1.10;;;;;;;;;;1674504;29;21621;-63
2022/08/02 04:40:14;;;;;;;1.33;1.20;;;;;;;;;;1670019;29;21713;-63
2022/08/02 04:41:05;;;;;;;3.35;1.30;;;;;;;;;;1671747;29;21689;-64
2022/08/02 04:41:57;;;;;;;1.65;1.38;;;;;;;;;;1675283;29;22750;-64
2022/08/02 04:42:48;;;;;;;2.78;1.40;;;;;;;;;;1676468;29;21761;-64
2022/08/02 04:43:40;;;;;;;1.48;1.38;;;;;;;;;;1673831;29;22583;-64
2022/08/02 04:44:32;;;;;;;1.13;1.13;;;;;;;;;;1677905;29;21636;-64
2022/08/02 04:45:24;;;;;;;2.35;1.42;;;;;;;;;;1676122;29;22417;-63
2022/08/02 04:46:17;;;;;;;1.15;1.15;;;;;;;;;;1671169;29;21615;-64
2022/08/02 04:47:09;;;;;;;1.25;1.17;;;;;;;;;;1672705;29;22025;-64
2022/08/02 04:48:01;;;;;;;1.95;1.65;;;;;;;;;;1675021;29;21729;-64
2022/08/02 04:48:53;;;;;;;1.42;1.33;;;;;;;;;;1673834;29;21717;-63
2022/08/02 04:49:45;;;;;;;1.23;1.10;;;;;;;;;;1666309;29;21624;-64
2022/08/02 04:50:36;;;;;;;1.33;1.25;;;;;;;;;;1662613;29;22639;-63
2022/08/02 04:51:29;;;;;;;1.38;1.38;;;;;;;;;;1669912;29;21632;-64
2022/08/02 04:52:20;;;;;;;1.35;1.25;;;;;;;;;;1674892;29;21738;-64
2022/08/02 04:53:12;;;;;;;1.27;1.20;;;;;;;;;;1676336;29;21775;-64
2022/08/02 04:54:04;;;;;;;1.63;1.45;;;;;;;;;;1676185;29;23813;-64
2022/08/02 04:54:56;;;;;;;1.10;1.10;;;;;;;;;;1675749;29;22657;-64
2022/08/02 04:55:48;;;;;;;1.00;1.00;;;;;;;;;;1677188;29;21587;-64
2022/08/02 04:56:41;;;;;;;1.48;1.38;;;;;;;;;;1673777;29;21606;-64
2022/08/02 04:58:43;;;;;;;0.82;0.82;;;;;;;;;;1677748;29;21809;-65
2022/08/02 04:59:34;;;;;;;1.65;1.55;;;;;;;;;;1673598;29;21664;-64
2022/08/02 05:00:26;;;;;;;1.10;1.10;;;;;;;;;;1674071;29;22682;-64
2022/08/02 05:01:19;;;;;;;1.08;1.08;;;;;;;;;;1675056;29;21673;-64
2022/08/02 05:02:11;;;;;;;1.25;1.15;;;;;;;;;;1674008;29;22509;-64
2022/08/02 05:03:03;;;;;;;1.23;1.13;;;;;;;;;;1676152;29;21592;-64
2022/08/02 05:03:54;;;;;;;1.27;1.02;;;;;;;;;;1677714;29;21568;-64
2022/08/02 05:04:47;;;;;;;1.30;1.30;;;;;;;;;;1666621;29;21842;-64
2022/08/02 05:05:38;;;;;;;1.17;1.17;;;;;;;;;;1662784;29;21652;-64
2022/08/02 05:06:30;;;;;;;1.15;1.13;;;;;;;;;;1665454;29;21713;-64
2022/08/02 05:07:21;;;;;;;1.30;1.20;;;;;;;;;;1670425;29;21707;-64
2022/08/02 05:08:14;;;;;;;1.95;1.33;;;;;;;;;;1677735;29;22535;-64
2022/08/02 05:09:05;;;;;;;1.42;1.10;;;;;;;;;;1676240;29;21808;-64
2022/08/02 05:09:57;;;;;;;1.35;1.25;;;;;;;;;;1669090;29;21847;-64
2022/08/02 05:10:48;;;;;;;1.30;1.20;;;;;;;;;;1669595;29;22640;-63
2022/08/02 05:11:41;;;;;;;1.48;1.38;;;;;;;;;;1671756;29;21670;-63
2022/08/02 05:12:32;;;;;;;1.40;1.30;;;;;;;;;;1675443;29;22359;-64
2022/08/02 05:13:24;;;;;;;1.45;1.35;;;;;;;;;;1674664;29;21722;-64
2022/08/02 05:14:15;;;;;;;2.22;1.20;;;;;;;;;;1675390;29;21603;-64
2022/08/02 05:15:09;;;;;;;1.33;1.20;;;;;;;;;;1675637;29;22281;-64
2022/08/02 05:16:03;;;;;;;1.42;1.33;;;;;;;;;;1669871;29;21617;-64
2022/08/02 05:16:55;;;;;;;1.13;1.00;;;;;;;;;;1675416;29;21610;-64
2022/08/02 05:17:48;;;;;;;1.30;1.20;;;;;;;;;;1677591;29;22014;-64
2022/08/02 05:18:40;;;;;;;1.17;1.10;;;;;;;;;;1672303;29;22541;-63
2022/08/02 05:19:31;;;;;;;1.27;1.20;;;;;;;;;;1676470;29;22059;-63
2022/08/02 05:20:24;;;;;;;1.30;1.20;;;;;;;;;;1675765;29;22151;-64
2022/08/02 05:21:15;;;;;;;1.70;1.35;;;;;;;;;;1674119;29;21610;-65
2022/08/02 05:22:08;;;;;;;1.45;1.35;;;;;;;;;;1676569;29;21797;-64
2022/08/02 05:22:59;;;;;;;1.30;1.20;;;;;;;;;;1676305;29;22514;-64
2022/08/02 05:23:51;;;;;;;0.98;0.93;;;;;;;;;;1670592;29;22075;-64